createdAt,value
2023-09-08T00:01:04.357Z,8.00
2023-09-08T00:03:32.016Z,8.00
2023-09-08T00:05:59.882Z,7.57
2023-09-08T00:08:27.612Z,7.30
2023-09-08T00:10:55.200Z,7.17
2023-09-08T00:13:24.107Z,8.20
2023-09-08T00:15:51.693Z,8.03
2023-09-08T00:18:19.244Z,8.40
2023-09-08T00:20:48.083Z,7.47
2023-09-08T00:23:15.643Z,10.10
2023-09-08T00:25:43.349Z,7.57
2023-09-08T00:28:10.883Z,8.30
2023-09-08T00:30:39.818Z,7.63
2023-09-08T00:33:09.807Z,8.13
2023-09-08T00:35:37.630Z,7.97
2023-09-08T00:38:10.362Z,8.53
2023-09-08T00:40:38.906Z,7.77
2023-09-08T00:43:06.477Z,7.57
2023-09-08T00:45:35.164Z,8.10
2023-09-08T00:48:04.737Z,7.73
2023-09-08T00:50:32.713Z,8.33
2023-09-08T00:53:00.333Z,8.03
2023-09-08T00:55:27.883Z,7.43
2023-09-08T00:57:55.607Z,8.20
2023-09-08T01:00:23.207Z,8.83
2023-09-08T01:02:50.837Z,9.73
2023-09-08T01:05:20.015Z,10.03
2023-09-08T01:07:48.258Z,8.93
2023-09-08T01:10:16.704Z,8.57
2023-09-08T01:12:44.308Z,8.57
2023-09-08T01:15:12.141Z,8.60
2023-09-08T01:17:40.196Z,8.80
2023-09-08T01:20:14.014Z,9.67
2023-09-08T01:22:57.882Z,8.87
2023-09-08T01:25:27.594Z,7.80
2023-09-08T01:27:56.115Z,9.40
2023-09-08T01:30:25.592Z,7.37
2023-09-08T01:32:54.154Z,8.43
2023-09-08T01:35:21.764Z,7.83
2023-09-08T01:37:50.595Z,8.40
2023-09-08T01:40:19.883Z,7.57
2023-09-08T01:42:49.745Z,7.20
2023-09-08T01:45:17.386Z,7.67
2023-09-08T01:47:44.997Z,7.43
2023-09-08T01:50:12.636Z,8.23
2023-09-08T01:52:41.211Z,8.07
2023-09-08T01:55:09.536Z,6.87
2023-09-08T01:57:37.139Z,7.27
2023-09-08T02:00:07.676Z,7.80
2023-09-08T02:02:40.155Z,7.50
2023-09-08T02:05:09.013Z,8.30
2023-09-08T02:07:36.717Z,7.57
2023-09-08T02:10:04.477Z,8.40
2023-09-08T02:12:32.075Z,8.50
2023-09-08T02:15:01.078Z,8.40
2023-09-08T02:17:30.524Z,8.17
2023-09-08T02:19:58.282Z,8.20
2023-09-08T02:22:25.843Z,6.90
2023-09-08T02:24:53.724Z,7.80
2023-09-08T02:27:21.649Z,8.27
2023-09-08T02:29:50.924Z,8.07
2023-09-08T02:32:18.485Z,7.10
2023-09-08T02:34:49.685Z,8.10
2023-09-08T02:37:19.277Z,8.13
2023-09-08T02:39:46.860Z,8.10
2023-09-08T02:42:14.506Z,8.03
2023-09-08T02:44:42.661Z,8.87
2023-09-08T02:47:11.266Z,8.73
2023-09-08T02:49:40.354Z,8.73
2023-09-08T02:52:09.234Z,9.33
2023-09-08T02:54:36.911Z,8.13
2023-09-08T02:57:05.054Z,8.43
2023-09-08T02:59:32.669Z,8.90
2023-09-08T03:02:01.790Z,8.70
2023-09-08T03:04:29.503Z,8.40
2023-09-08T03:06:57.854Z,8.90
2023-09-08T03:09:26.825Z,8.20
2023-09-08T03:11:54.368Z,9.20
2023-09-08T03:14:21.912Z,8.67
2023-09-08T03:16:49.560Z,9.60
2023-09-08T03:19:17.171Z,7.23
2023-09-08T03:21:46.167Z,8.17
2023-09-08T03:24:13.729Z,9.23
2023-09-08T03:26:42.591Z,8.80
2023-09-08T03:29:10.252Z,9.23
2023-09-08T03:31:38.015Z,9.80
2023-09-08T03:34:06.015Z,22.93
2023-09-08T03:36:36.819Z,22.93
2023-09-08T03:39:05.115Z,11.20
2023-09-08T03:41:32.703Z,10.40
2023-09-08T03:44:02.306Z,8.80
2023-09-08T03:46:29.895Z,8.60
2023-09-08T03:49:01.807Z,8.43
2023-09-08T03:51:29.684Z,10.00
2023-09-08T03:53:58.080Z,10.43
2023-09-08T03:56:25.793Z,10.20
2023-09-08T03:58:54.041Z,8.67
2023-09-08T04:01:22.978Z,10.23
2023-09-08T04:03:50.613Z,9.80
2023-09-08T04:06:18.246Z,9.30
2023-09-08T04:08:46.096Z,10.47
2023-09-08T04:11:13.701Z,10.47
2023-09-08T04:13:41.242Z,9.60
2023-09-08T04:16:08.897Z,10.70
2023-09-08T04:18:37.948Z,10.70
2023-09-08T04:21:08.400Z,9.67
2023-09-08T04:23:36.254Z,9.43
2023-09-08T04:26:04.474Z,10.60
2023-09-08T04:28:32.279Z,11.10
2023-09-08T04:31:00.258Z,11.67
2023-09-08T04:33:29.759Z,10.20
2023-09-08T04:35:59.075Z,9.50
2023-09-08T04:38:26.612Z,11.20
2023-09-08T04:40:54.795Z,10.43
2023-09-08T04:43:22.666Z,10.13
2023-09-08T04:45:51.652Z,10.50
2023-09-08T04:48:19.398Z,9.53
2023-09-08T04:50:47.154Z,11.50
2023-09-08T04:53:16.233Z,11.00
2023-09-08T04:55:43.985Z,10.53
2023-09-08T04:58:11.854Z,10.87
2023-09-08T05:00:40.795Z,11.80
2023-09-08T05:03:09.260Z,9.40
2023-09-08T05:05:37.751Z,10.57
2023-09-08T05:08:06.105Z,11.40
2023-09-08T05:10:35.282Z,11.07
2023-09-08T05:13:03.575Z,12.03
2023-09-08T05:15:35.026Z,10.57
2023-09-08T05:18:05.236Z,11.37
2023-09-08T05:20:32.988Z,10.53
2023-09-08T05:23:01.658Z,10.77
2023-09-08T05:25:29.316Z,11.37
2023-09-08T05:27:58.603Z,9.63
2023-09-08T05:30:26.231Z,12.70
2023-09-08T05:32:55.018Z,10.70
2023-09-08T05:35:22.874Z,11.97
2023-09-08T05:37:50.725Z,11.57
2023-09-08T05:40:19.869Z,11.23
2023-09-08T05:42:47.496Z,12.00
2023-09-08T05:45:16.377Z,10.63
2023-09-08T05:47:44.570Z,10.53
2023-09-08T05:50:13.046Z,11.30
2023-09-08T05:52:40.716Z,11.00
2023-09-08T05:55:08.820Z,13.43
2023-09-08T05:57:36.754Z,11.07
2023-09-08T06:00:04.798Z,11.00
2023-09-08T06:02:42.103Z,11.03
2023-09-08T06:05:12.927Z,9.80
2023-09-08T06:07:44.068Z,10.30
2023-09-08T06:10:19.133Z,9.70
2023-09-08T06:12:47.205Z,10.47
2023-09-08T06:15:14.872Z,10.40
2023-09-08T06:17:43.912Z,10.53
2023-09-08T06:20:13.238Z,10.40
2023-09-08T06:22:41.056Z,10.07
2023-09-08T06:25:10.737Z,10.23
2023-09-08T06:27:39.264Z,10.57
2023-09-08T06:30:08.265Z,10.47
2023-09-08T06:32:35.895Z,10.40
2023-09-08T06:35:05.532Z,9.30
2023-09-08T06:37:37.213Z,11.03
2023-09-08T06:40:06.169Z,10.20
2023-09-08T06:42:35.214Z,9.90
2023-09-08T06:45:12.666Z,10.50
2023-09-08T06:47:40.435Z,9.60
2023-09-08T06:50:10.951Z,9.77
2023-09-08T06:52:38.948Z,9.70
2023-09-08T06:55:07.094Z,10.67
2023-09-08T06:57:35.042Z,9.63
2023-09-08T07:00:07.570Z,10.00
2023-09-08T07:02:35.353Z,9.50
2023-09-08T07:05:07.606Z,10.00
2023-09-08T07:07:41.192Z,10.80
2023-09-08T07:10:10.087Z,9.10
2023-09-08T07:12:37.717Z,9.50
2023-09-08T07:15:06.059Z,9.93
2023-09-08T07:17:34.100Z,8.70
2023-09-08T07:20:02.006Z,9.30
2023-09-08T07:22:29.642Z,9.00
2023-09-08T07:24:58.639Z,9.50
2023-09-08T07:27:26.191Z,10.67
2023-09-08T07:29:53.800Z,8.60
2023-09-08T07:32:21.836Z,9.60
2023-09-08T07:34:55.881Z,9.10
2023-09-08T07:37:24.760Z,9.80
2023-09-08T07:39:54.288Z,9.37
2023-09-08T07:42:24.546Z,10.10
2023-09-08T07:44:52.110Z,9.63
2023-09-08T07:47:19.691Z,9.40
2023-09-08T07:49:48.796Z,8.40
2023-09-08T07:52:16.499Z,8.40
2023-09-08T07:54:44.265Z,9.03
2023-09-08T07:57:11.863Z,8.87
2023-09-08T07:59:40.834Z,8.83
2023-09-08T08:02:08.492Z,9.13
2023-09-08T08:04:36.108Z,9.70
2023-09-08T08:07:03.799Z,8.60
2023-09-08T08:09:31.333Z,7.33
2023-09-08T08:11:58.923Z,8.00
2023-09-08T08:14:26.482Z,8.83
2023-09-08T08:16:55.349Z,8.97
2023-09-08T08:19:24.718Z,8.50
2023-09-08T08:21:54.557Z,8.00
2023-09-08T08:24:22.096Z,8.07
2023-09-08T08:26:49.666Z,8.37
2023-09-08T08:29:17.283Z,8.37
2023-09-08T08:31:44.896Z,7.30
2023-09-08T08:34:13.755Z,7.53
2023-09-08T08:36:41.299Z,8.57
2023-09-08T08:39:08.942Z,8.10
2023-09-08T08:41:40.364Z,7.50
2023-09-08T08:44:08.213Z,7.47
2023-09-08T08:46:36.497Z,7.60
2023-09-08T08:49:06.097Z,7.67
2023-09-08T08:51:36.731Z,8.13
2023-09-08T08:54:05.464Z,7.03
2023-09-08T08:56:33.619Z,7.50
2023-09-08T08:59:03.563Z,8.10
2023-09-08T09:01:32.080Z,7.63
2023-09-08T09:04:00.433Z,7.70
2023-09-08T09:06:32.641Z,7.83
2023-09-08T09:09:01.905Z,7.47
2023-09-08T09:11:29.612Z,7.03
2023-09-08T09:13:57.521Z,7.50
2023-09-08T09:16:25.559Z,7.00
2023-09-08T09:18:57.590Z,7.50
2023-09-08T09:21:25.682Z,7.40
2023-09-08T09:23:54.323Z,7.03
2023-09-08T09:26:28.389Z,6.80
2023-09-08T09:28:56.230Z,7.60
2023-09-08T09:31:27.093Z,7.00
2023-09-08T09:34:06.431Z,7.30
2023-09-08T09:36:34.188Z,6.40
2023-09-08T09:39:02.231Z,7.50
2023-09-08T09:41:31.685Z,7.20
2023-09-08T09:43:59.386Z,6.90
2023-09-08T09:46:29.865Z,7.10
2023-09-08T09:48:58.180Z,6.70
2023-09-08T09:51:28.510Z,7.30
2023-09-08T09:53:57.278Z,7.40
2023-09-08T09:56:25.601Z,6.50
2023-09-08T09:58:56.212Z,7.00
2023-09-08T10:01:26.782Z,7.43
2023-09-08T10:03:56.128Z,7.10
2023-09-08T10:06:24.101Z,6.83
2023-09-08T10:08:53.179Z,6.00
2023-09-08T10:11:25.595Z,7.20
2023-09-08T10:13:56.600Z,6.47
2023-09-08T10:16:24.654Z,6.17
2023-09-08T10:18:55.756Z,7.47
2023-09-08T10:21:25.936Z,6.07
2023-09-08T10:23:59.667Z,6.93
2023-09-08T10:26:29.392Z,6.40
2023-09-08T10:28:58.742Z,6.27
2023-09-08T10:31:28.118Z,6.83
2023-09-08T10:33:56.624Z,6.80
2023-09-08T10:36:24.979Z,7.00
2023-09-08T10:38:53.306Z,5.93
2023-09-08T10:41:33.292Z,6.87
2023-09-08T10:44:07.592Z,5.80
2023-09-08T10:46:36.241Z,6.80
2023-09-08T10:49:05.964Z,6.30
2023-09-08T10:51:33.722Z,5.77
2023-09-08T10:54:01.382Z,6.43
2023-09-08T10:56:30.815Z,6.97
2023-09-08T10:59:02.543Z,6.43
2023-09-08T11:01:31.803Z,6.10
2023-09-08T11:03:59.999Z,5.97
2023-09-08T11:06:31.511Z,5.90
2023-09-08T11:09:08.502Z,6.30
2023-09-08T11:11:38.030Z,5.63
2023-09-08T11:14:06.033Z,5.50
2023-09-08T11:16:36.460Z,5.30
2023-09-08T11:19:05.939Z,6.17
2023-09-08T11:21:36.152Z,5.70
2023-09-08T11:24:05.649Z,5.10
2023-09-08T11:26:37.808Z,6.30
2023-09-08T11:29:05.765Z,5.40
2023-09-08T11:31:35.787Z,5.70
2023-09-08T11:34:03.840Z,5.63
2023-09-08T11:36:31.619Z,5.90
2023-09-08T11:38:59.334Z,6.17
2023-09-08T11:41:26.955Z,6.00
2023-09-08T11:43:54.734Z,6.27
2023-09-08T11:46:23.575Z,5.47
2023-09-08T11:48:52.680Z,6.50
2023-09-08T11:51:25.171Z,5.63
2023-09-08T11:53:53.125Z,5.10
2023-09-08T11:56:20.893Z,6.33
2023-09-08T11:58:49.871Z,4.73
2023-09-08T12:01:18.508Z,5.73
2023-09-08T12:03:59.250Z,6.37
2023-09-08T12:06:28.484Z,5.60
2023-09-08T12:08:57.038Z,5.67
2023-09-08T12:11:26.047Z,5.30
2023-09-08T12:14:02.425Z,5.90
2023-09-08T12:16:30.251Z,5.90
2023-09-08T12:18:59.257Z,5.80
2023-09-08T12:21:26.956Z,5.47
2023-09-08T12:23:55.689Z,5.97
2023-09-08T12:26:24.777Z,5.70
2023-09-08T12:28:52.568Z,6.90
2023-09-08T12:31:22.634Z,7.13
2023-09-08T12:33:50.784Z,5.40
2023-09-08T12:36:29.734Z,5.83
2023-09-08T12:38:57.428Z,5.87
2023-09-08T12:41:25.166Z,5.40
2023-09-08T12:43:52.806Z,5.63
2023-09-08T12:46:20.636Z,5.90
2023-09-08T12:48:48.453Z,5.70
2023-09-08T12:51:16.069Z,5.63
2023-09-08T12:53:44.993Z,5.07
2023-09-08T12:56:12.572Z,4.90
2023-09-08T12:58:40.158Z,5.87
2023-09-08T13:01:09.409Z,5.50
2023-09-08T13:03:38.280Z,5.03
2023-09-08T13:06:06.480Z,5.50
2023-09-08T13:08:34.573Z,5.57
2023-09-08T13:11:04.393Z,5.60
2023-09-08T13:13:32.471Z,5.30
2023-09-08T13:16:02.823Z,5.50
2023-09-08T13:18:36.591Z,5.10
2023-09-08T13:21:04.487Z,4.87
2023-09-08T13:23:32.033Z,5.83
2023-09-08T13:25:59.588Z,5.13
2023-09-08T13:28:28.508Z,4.20
2023-09-08T13:30:56.384Z,4.40
2023-09-08T13:33:24.090Z,4.80
2023-09-08T13:35:51.630Z,4.10
2023-09-08T13:38:19.358Z,5.47
2023-09-08T13:40:48.851Z,4.87
2023-09-08T13:43:16.429Z,4.47
2023-09-08T13:45:45.367Z,4.57
2023-09-08T13:48:13.206Z,4.90
2023-09-08T13:50:43.947Z,4.53
2023-09-08T13:53:14.657Z,4.20
2023-09-08T13:55:43.751Z,5.07
2023-09-08T13:58:12.553Z,5.00
2023-09-08T14:03:14.695Z,5.17
2023-09-08T14:05:47.169Z,4.77
2023-09-08T14:08:38.868Z,4.63
2023-09-08T14:13:38.189Z,4.80
2023-09-08T14:16:06.189Z,4.87
2023-09-08T14:18:35.394Z,4.73
2023-09-08T14:21:03.605Z,4.67
2023-09-08T14:23:32.166Z,5.10
2023-09-08T14:26:02.745Z,5.10
2023-09-08T14:28:33.198Z,5.00
2023-09-08T14:31:02.135Z,5.27
2023-09-08T14:33:29.863Z,4.83
2023-09-08T14:35:59.141Z,4.93
2023-09-08T14:38:26.972Z,5.30
2023-09-08T14:40:58.662Z,4.90
2023-09-08T14:43:26.715Z,5.40
2023-09-08T14:45:55.021Z,5.27
2023-09-08T14:48:22.921Z,5.37
2023-09-08T14:50:50.846Z,4.90
2023-09-08T14:53:20.110Z,5.07
2023-09-08T14:55:49.396Z,5.00
2023-09-08T14:58:17.182Z,4.80
2023-09-08T15:00:46.701Z,4.70
2023-09-08T15:03:14.413Z,4.57
2023-09-08T15:05:42.103Z,5.60
2023-09-08T15:08:09.902Z,4.87
2023-09-08T15:10:39.095Z,5.93
2023-09-08T15:13:06.955Z,4.60
2023-09-08T15:15:34.546Z,4.70
2023-09-08T15:18:02.341Z,5.13
2023-09-08T15:20:30.004Z,5.40
2023-09-08T15:22:57.721Z,5.23
2023-09-08T15:25:25.538Z,5.10
2023-09-08T15:27:54.945Z,4.73
2023-09-08T15:30:23.551Z,5.10
2023-09-08T15:32:51.296Z,5.00
2023-09-08T15:35:18.974Z,4.40
2023-09-08T15:37:46.850Z,8.07
2023-09-08T15:40:15.547Z,10.20
2023-09-08T15:42:44.321Z,6.17
2023-09-08T15:45:13.522Z,4.57
2023-09-08T15:47:41.215Z,5.00
2023-09-08T15:50:10.068Z,5.17
2023-09-08T15:52:38.630Z,5.07
2023-09-08T15:55:07.597Z,5.23
2023-09-08T15:57:35.159Z,5.80
2023-09-08T16:00:03.507Z,5.33
2023-09-08T16:02:37.828Z,5.37
2023-09-08T16:05:05.935Z,5.40
2023-09-08T16:07:33.584Z,4.90
2023-09-08T16:10:01.118Z,5.80
2023-09-08T16:12:28.824Z,5.07
2023-09-08T16:14:56.466Z,5.20
2023-09-08T16:17:26.419Z,5.27
2023-09-08T16:19:55.410Z,5.10
2023-09-08T16:22:23.139Z,5.23
2023-09-08T16:24:50.796Z,5.03
2023-09-08T16:27:18.496Z,4.90
2023-09-08T16:29:46.475Z,6.00
2023-09-08T16:32:14.109Z,5.57
2023-09-08T16:34:41.660Z,5.57
2023-09-08T16:37:10.691Z,5.50
2023-09-08T16:39:38.523Z,5.40
2023-09-08T16:42:06.283Z,5.20
2023-09-08T16:44:33.827Z,5.57
2023-09-08T16:47:01.643Z,5.30
2023-09-08T16:49:29.589Z,5.73
2023-09-08T16:51:58.108Z,5.70
2023-09-08T16:54:28.155Z,5.10
2023-09-08T16:56:55.820Z,6.00
2023-09-08T16:59:23.719Z,6.80
2023-09-08T17:01:51.854Z,6.87
2023-09-08T17:04:19.592Z,7.73
2023-09-08T17:06:47.645Z,6.53
2023-09-08T17:09:15.627Z,6.40
2023-09-08T17:11:44.795Z,5.83
2023-09-08T17:14:13.920Z,6.20
2023-09-08T17:16:41.647Z,6.27
2023-09-08T17:19:09.357Z,6.03
2023-09-08T17:21:37.089Z,6.50
2023-09-08T17:24:04.951Z,5.87
2023-09-08T17:26:32.843Z,6.17
2023-09-08T17:29:01.805Z,5.27
2023-09-08T17:31:30.812Z,7.00
2023-09-08T17:33:58.501Z,5.63
2023-09-08T17:36:26.400Z,5.73
2023-09-08T17:38:54.165Z,6.50
2023-09-08T17:41:21.801Z,6.03
2023-09-08T17:43:49.418Z,6.80
2023-09-08T17:46:18.440Z,6.30
2023-09-08T17:48:46.378Z,6.13
2023-09-08T17:51:14.011Z,6.80
2023-09-08T17:53:41.671Z,7.73
2023-09-08T17:56:09.395Z,7.57
2023-09-08T17:58:37.145Z,7.90
2023-09-08T18:01:05.184Z,7.27
2023-09-08T18:03:34.539Z,6.80
2023-09-08T18:06:02.391Z,7.30
2023-09-08T18:08:30.047Z,8.20
2023-09-08T18:11:01.148Z,9.07
2023-09-08T18:13:29.004Z,7.90
2023-09-08T18:15:59.139Z,8.37
2023-09-08T18:18:26.883Z,9.20
2023-09-08T18:21:08.094Z,9.50
2023-09-08T18:23:38.170Z,9.27
2023-09-08T18:26:06.570Z,9.10
2023-09-08T18:28:34.238Z,8.60
2023-09-08T18:31:01.986Z,8.87
2023-09-08T18:33:30.182Z,8.50
2023-09-08T18:35:59.191Z,8.90
2023-09-08T18:38:27.386Z,8.57
2023-09-08T18:40:55.029Z,7.70
2023-09-08T18:43:22.671Z,7.53
2023-09-08T18:45:50.512Z,9.10
2023-09-08T18:48:18.354Z,9.00
2023-09-08T18:50:47.560Z,8.77
2023-09-08T18:53:16.947Z,8.87
2023-09-08T18:55:44.872Z,8.00
2023-09-08T18:58:12.611Z,9.03
2023-09-08T19:00:44.161Z,7.63
2023-09-08T19:03:13.447Z,9.00
2023-09-08T19:05:42.024Z,9.33
2023-09-08T19:08:11.143Z,8.17
2023-09-08T19:10:40.138Z,8.50
2023-09-08T19:13:07.871Z,7.63
2023-09-08T19:15:35.531Z,9.50
2023-09-08T19:18:03.370Z,8.53
2023-09-08T19:20:31.097Z,8.67
2023-09-08T19:23:00.497Z,9.87
2023-09-08T19:25:32.059Z,9.37
2023-09-08T19:28:01.195Z,8.80
2023-09-08T19:30:28.796Z,9.20
2023-09-08T19:32:57.072Z,8.87
2023-09-08T19:35:27.311Z,9.10
2023-09-08T19:38:02.852Z,8.57
2023-09-08T19:40:37.402Z,9.63
2023-09-08T19:43:12.696Z,9.77
2023-09-08T19:45:40.990Z,8.40
2023-09-08T19:48:10.881Z,9.10
2023-09-08T19:50:40.602Z,9.20
2023-09-08T19:53:10.616Z,9.03
2023-09-08T19:55:42.448Z,19.80
2023-09-08T19:58:14.108Z,16.30
2023-09-08T20:00:43.562Z,15.73
2023-09-08T20:03:13.571Z,11.60
2023-09-08T20:05:46.370Z,9.60
2023-09-08T20:08:17.541Z,9.50
2023-09-08T20:10:54.129Z,10.10
2023-09-08T20:13:23.357Z,9.90
2023-09-08T20:16:04.824Z,10.73
2023-09-08T20:18:32.854Z,9.70
2023-09-08T20:21:06.201Z,10.73
2023-09-08T20:23:44.703Z,12.27
2023-09-08T20:26:16.821Z,11.13
2023-09-08T20:28:52.037Z,11.33
2023-09-08T20:31:26.738Z,12.20
2023-09-08T20:33:56.034Z,11.13
2023-09-08T20:36:25.240Z,12.40
2023-09-08T20:38:56.034Z,12.53
2023-09-08T20:41:29.029Z,11.93
2023-09-08T20:43:58.149Z,12.10
2023-09-08T20:46:25.775Z,12.03
2023-09-08T20:48:53.596Z,11.33
2023-09-08T20:51:21.798Z,11.53
2023-09-08T20:53:49.364Z,12.73
2023-09-08T20:56:16.985Z,12.70
2023-09-08T20:58:44.936Z,13.13
2023-09-08T21:01:14.163Z,10.47
2023-09-08T21:03:43.627Z,11.40
2023-09-08T21:06:11.547Z,11.00
2023-09-08T21:08:39.120Z,9.80
2023-09-08T21:11:06.654Z,10.47
2023-09-08T21:13:35.106Z,9.80
2023-09-08T21:16:02.963Z,11.27
2023-09-08T21:18:32.154Z,9.43
2023-09-08T21:21:00.438Z,12.10
2023-09-08T21:23:29.014Z,12.07
2023-09-08T21:25:56.640Z,14.63
2023-09-08T21:28:24.212Z,12.80
2023-09-08T21:30:51.783Z,12.27
2023-09-08T21:33:21.805Z,12.23
2023-09-08T21:35:50.811Z,13.10
2023-09-08T21:38:18.622Z,11.97
2023-09-08T21:40:46.188Z,12.57
2023-09-08T21:43:13.720Z,12.37
2023-09-08T21:45:41.274Z,13.13
2023-09-08T21:48:08.935Z,12.57
2023-09-08T21:50:37.050Z,11.90
2023-09-08T21:53:06.061Z,12.70
2023-09-08T21:55:33.832Z,17.77
2023-09-08T21:58:01.555Z,15.10
2023-09-08T22:00:32.971Z,12.60
2023-09-08T22:03:00.755Z,14.00
2023-09-08T22:05:28.513Z,15.13
2023-09-08T22:07:56.379Z,13.37
2023-09-08T22:10:25.433Z,14.47
2023-09-08T22:12:53.042Z,16.50
2023-09-08T22:15:20.615Z,17.03
2023-09-08T22:17:49.338Z,14.27
2023-09-08T22:20:17.384Z,13.23
2023-09-08T22:22:45.457Z,14.53
2023-09-08T22:25:13.936Z,14.90
2023-09-08T22:27:42.941Z,13.53
2023-09-08T22:30:12.418Z,13.23
2023-09-08T22:32:40.641Z,14.50
2023-09-08T22:35:08.831Z,13.60
2023-09-08T22:37:36.731Z,14.67
2023-09-08T22:40:07.533Z,15.40
2023-09-08T22:42:35.142Z,14.80
2023-09-08T22:45:06.049Z,13.60
2023-09-08T22:47:33.681Z,12.70
2023-09-08T22:50:07.761Z,12.53
2023-09-08T22:52:35.457Z,13.00
2023-09-08T22:55:17.615Z,13.93
2023-09-08T22:57:52.344Z,11.90
2023-09-08T23:00:21.712Z,11.57
2023-09-08T23:02:49.447Z,13.60
2023-09-08T23:05:17.180Z,13.67
2023-09-08T23:07:44.926Z,12.40
2023-09-08T23:10:12.646Z,12.50
2023-09-08T23:12:40.196Z,11.10
2023-09-08T23:15:10.037Z,11.77
2023-09-08T23:17:39.204Z,13.93
2023-09-08T23:20:08.928Z,13.77
2023-09-08T23:22:37.449Z,12.87
2023-09-08T23:25:05.779Z,11.70
2023-09-08T23:27:33.377Z,11.27
2023-09-08T23:30:00.898Z,11.37
2023-09-08T23:32:28.549Z,12.17
2023-09-08T23:34:57.372Z,12.00
2023-09-08T23:37:24.957Z,11.17
2023-09-08T23:39:52.583Z,10.57
2023-09-08T23:42:20.373Z,12.00
2023-09-08T23:44:47.970Z,12.63
2023-09-08T23:47:15.709Z,11.77
2023-09-08T23:49:44.330Z,12.47
2023-09-08T23:52:13.202Z,13.30
2023-09-08T23:54:46.950Z,12.60
2023-09-08T23:57:15.266Z,12.57
2023-09-08T23:59:43.577Z,12.73
